Time;durP1;ratioP1;P1;durP2;ratioP2;P2;SDS_P1;SDS_P2;PMS_P1;PMS_P2;Temp;Humidity;BMP_temperature;BMP_pressure;BME280_temperature;BME280_humidity;BME280_pressure;Samples;Min_cycle;Max_cycle;Signal;HPM_P1;HPM_P2
2021/04/17 00:02:20;;;;;;;8.50;4.97;;;8.20;61.00;;;;;;4897300;29;20091;-79
2021/04/17 00:04:46;;;;;;;7.07;5.10;;;8.10;61.10;;;;;;4893127;29;20032;-80
2021/04/17 00:07:14;;;;;;;8.18;4.75;;;8.10;61.30;;;;;;4892049;29;20582;-80
2021/04/17 00:09:40;;;;;;;9.55;5.40;;;8.10;61.60;;;;;;4894830;29;20160;-79
2021/04/17 00:12:24;;;;;;;7.82;5.05;;;8.00;61.90;;;;;;4890824;29;20065;-80
2021/04/17 00:14:51;;;;;;;9.85;5.00;;;8.00;62.20;;;;;;4896531;29;20032;-80
2021/04/17 00:17:18;;;;;;;10.73;5.60;;;8.00;62.30;;;;;;4893392;29;20068;-80
2021/04/17 00:19:46;;;;;;;9.30;4.70;;;7.90;62.30;;;;;;4895578;29;20029;-80
2021/04/17 00:22:12;;;;;;;10.02;5.65;;;7.90;62.40;;;;;;4892607;29;20441;-80
2021/04/17 00:24:38;;;;;;;10.55;4.95;;;7.90;62.80;;;;;;4891012;29;20064;-76
2021/04/17 00:27:06;;;;;;;10.30;4.82;;;7.80;62.90;;;;;;4890979;29;20393;-73
2021/04/17 00:29:32;;;;;;;6.78;4.72;;;7.80;63.00;;;;;;4894600;29;20061;-73
2021/04/17 00:32:02;;;;;;;9.05;4.88;;;7.80;63.10;;;;;;4878673;29;20041;-73
2021/04/17 00:34:27;;;;;;;8.90;5.47;;;7.80;63.20;;;;;;4876968;29;20024;-74
2021/04/17 00:36:53;;;;;;;9.88;4.95;;;7.70;63.40;;;;;;4872158;29;20037;-73
2021/04/17 00:39:18;;;;;;;8.38;4.78;;;7.80;63.50;;;;;;4878485;29;20040;-73
2021/04/17 00:41:44;;;;;;;7.90;4.55;;;7.70;63.50;;;;;;4892965;29;20040;-73
2021/04/17 00:44:10;;;;;;;8.90;5.03;;;7.60;63.70;;;;;;4893913;29;20092;-73
2021/04/17 00:46:36;;;;;;;6.45;4.40;;;7.60;63.80;;;;;;4893450;29;20032;-73
2021/04/17 00:49:07;;;;;;;9.52;5.35;;;7.60;63.90;;;;;;4897158;29;20042;-74
2021/04/17 00:51:33;;;;;;;7.78;4.60;;;7.50;64.00;;;;;;4893584;29;20037;-73
2021/04/17 00:53:59;;;;;;;9.48;5.25;;;7.50;64.20;;;;;;4879938;29;20048;-74
2021/04/17 00:56:25;;;;;;;10.32;4.90;;;7.50;64.50;;;;;;4893449;29;20037;-73
2021/04/17 00:58:51;;;;;;;7.05;5.05;;;7.50;64.50;;;;;;4879330;29;20084;-73
2021/04/17 01:01:16;;;;;;;8.90;5.10;;;7.50;64.70;;;;;;4893087;29;20040;-73
2021/04/17 01:03:53;;;;;;;6.45;4.72;;;7.40;64.60;;;;;;4879430;29;20044;-73
2021/04/17 01:06:49;;;;;;;8.15;5.05;;;7.40;64.80;;;;;;4893600;29;20029;-74
2021/04/17 01:09:26;;;;;;;8.43;4.88;;;7.40;64.90;;;;;;4890703;29;20051;-73
2021/04/17 01:12:15;;;;;;;8.13;4.43;;;7.40;65.10;;;;;;4889157;29;20493;-73
2021/04/17 01:14:44;;;;;;;7.72;4.10;;;7.30;65.00;;;;;;4891684;29;20112;-74
2021/04/17 01:17:11;;;;;;;10.98;5.22;;;7.30;65.30;;;;;;4895810;29;20099;-73
2021/04/17 01:19:40;;;;;;;7.63;4.95;;;7.20;65.30;;;;;;4893009;29;20386;-73
2021/04/17 01:22:13;;;;;;;10.57;5.43;;;7.20;66.20;;;;;;4896224;29;20039;-74
2021/04/17 01:24:42;;;;;;;8.93;5.05;;;7.20;65.70;;;;;;4889294;29;20045;-73
2021/04/17 01:27:09;;;;;;;9.57;5.00;;;7.20;65.70;;;;;;4895415;29;20032;-73
2021/04/17 01:29:37;;;;;;;7.70;4.75;;;7.10;65.90;;;;;;4891923;29;20161;-74
2021/04/17 01:32:04;;;;;;;11.32;4.60;;;7.10;65.90;;;;;;4892251;29;20021;-73
2021/04/17 01:34:30;;;;;;;7.88;5.03;;;7.10;65.90;;;;;;4891625;29;20192;-73
2021/04/17 01:36:58;;;;;;;9.05;4.93;;;7.10;66.00;;;;;;4889967;29;20123;-73
2021/04/17 01:39:26;;;;;;;9.73;5.15;;;7.10;66.00;;;;;;4887394;29;20036;-74
2021/04/17 01:42:02;;;;;;;7.97;4.47;;;7.10;66.10;;;;;;4888638;29;20033;-74
2021/04/17 01:44:30;;;;;;;7.72;4.47;;;7.00;66.20;;;;;;4891931;29;20029;-73
2021/04/17 01:47:12;;;;;;;8.43;4.78;;;7.00;66.40;;;;;;4888943;29;20040;-73
2021/04/17 01:49:44;;;;;;;7.97;4.82;;;7.00;66.60;;;;;;4891760;29;20033;-73
2021/04/17 01:52:12;;;;;;;6.55;4.50;;;6.90;66.50;;;;;;4893052;29;20025;-73
2021/04/17 01:54:43;;;;;;;8.20;4.95;;;6.90;66.70;;;;;;4893449;29;20029;-73
2021/04/17 01:57:15;;;;;;;8.18;5.13;;;6.90;66.90;;;;;;4892533;29;20115;-73
2021/04/17 01:59:41;;;;;;;7.57;4.65;;;6.80;66.80;;;;;;4891727;29;20119;-73
2021/04/17 02:02:07;;;;;;;7.68;4.75;;;6.80;67.00;;;;;;4893239;29;20463;-73
2021/04/17 02:04:37;;;;;;;9.63;4.50;;;6.80;67.10;;;;;;4892912;29;20398;-73
2021/04/17 02:07:03;;;;;;;7.70;4.65;;;6.70;67.10;;;;;;4870053;29;603268;-73
2021/04/17 02:09:29;;;;;;;7.28;4.57;;;6.70;67.20;;;;;;4892223;29;20032;-73
2021/04/17 02:11:55;;;;;;;9.15;4.65;;;6.70;67.30;;;;;;4892218;29;20414;-73
2021/04/17 02:14:20;;;;;;;7.18;4.28;;;6.70;67.40;;;;;;4888845;29;20040;-73
2021/04/17 02:17:03;;;;;;;6.78;4.60;;;6.70;67.40;;;;;;4886289;29;20029;-73
2021/04/17 02:19:46;;;;;;;8.02;4.63;;;6.70;67.60;;;;;;4892189;29;20043;-73
2021/04/17 02:22:13;;;;;;;7.43;4.80;;;6.70;67.60;;;;;;4891897;29;20060;-74
2021/04/17 02:24:39;;;;;;;5.05;3.85;;;6.60;67.70;;;;;;4893755;29;20028;-74
2021/04/17 02:27:06;;;;;;;8.50;4.65;;;6.60;67.80;;;;;;4895000;29;20396;-74
2021/04/17 02:29:33;;;;;;;8.98;4.07;;;6.60;67.90;;;;;;4898705;29;20028;-73
2021/04/17 02:31:59;;;;;;;9.10;4.80;;;6.50;67.80;;;;;;4879722;29;20029;-73
2021/04/17 02:34:26;;;;;;;7.90;4.32;;;6.50;67.90;;;;;;4879103;29;20439;-73
2021/04/17 02:36:51;;;;;;;8.43;4.80;;;6.50;68.00;;;;;;4879156;29;20358;-73
2021/04/17 02:39:17;;;;;;;5.90;4.18;;;6.50;68.10;;;;;;4896165;29;20159;-73
2021/04/17 02:41:42;;;;;;;9.98;4.80;;;6.40;68.20;;;;;;4897848;29;20071;-73
2021/04/17 02:44:08;;;;;;;8.48;4.88;;;6.40;68.30;;;;;;4897152;29;20162;-73
2021/04/17 02:46:34;;;;;;;7.28;4.93;;;6.40;68.40;;;;;;4898276;29;20051;-73
2021/04/17 02:48:59;;;;;;;7.72;4.50;;;6.40;68.50;;;;;;4897900;29;20061;-73
2021/04/17 02:51:25;;;;;;;11.60;4.65;;;6.30;68.70;;;;;;4895872;29;20060;-73
2021/04/17 02:53:52;;;;;;;7.45;4.78;;;6.30;68.70;;;;;;4894496;29;20037;-73
2021/04/17 02:56:18;;;;;;;9.15;5.03;;;6.30;68.70;;;;;;4894810;29;20028;-73
2021/04/17 02:58:43;;;;;;;8.00;5.13;;;6.20;68.80;;;;;;4896274;29;20054;-73
2021/04/17 03:01:09;;;;;;;7.85;4.80;;;6.20;69.00;;;;;;4875105;29;20033;-73
2021/04/17 03:03:34;;;;;;;9.77;4.88;;;6.20;69.20;;;;;;4895005;29;20035;-73
2021/04/17 03:06:00;;;;;;;7.93;4.75;;;6.10;69.40;;;;;;4895749;29;20036;-73
2021/04/17 03:08:26;;;;;;;8.80;5.47;;;6.10;69.50;;;;;;4895752;29;20076;-73
2021/04/17 03:10:52;;;;;;;7.07;5.15;;;6.00;69.60;;;;;;4897137;29;20027;-73
2021/04/17 03:13:17;;;;;;;7.80;4.82;;;6.00;69.60;;;;;;4893422;29;20036;-74
2021/04/17 03:15:43;;;;;;;7.72;4.32;;;6.00;69.80;;;;;;4881579;29;20037;-73
2021/04/17 03:18:10;;;;;;;8.57;4.78;;;6.00;69.70;;;;;;4893795;29;20041;-73
2021/04/17 03:20:36;;;;;;;8.02;4.78;;;5.90;69.70;;;;;;4895445;29;20044;-73
2021/04/17 03:23:02;;;;;;;11.55;5.50;;;5.90;69.80;;;;;;4896040;29;20040;-73
2021/04/17 03:25:28;;;;;;;11.07;5.30;;;5.90;69.80;;;;;;4898255;29;20040;-73
2021/04/17 03:27:54;;;;;;;10.57;4.88;;;5.90;70.00;;;;;;4896712;29;20140;-73
2021/04/17 03:30:27;;;;;;;10.07;4.95;;;5.90;70.10;;;;;;4898417;29;20036;-73
2021/04/17 03:32:52;;;;;;;7.15;4.65;;;5.90;70.20;;;;;;4895791;29;20025;-73
2021/04/17 03:35:18;;;;;;;8.80;5.18;;;5.90;70.20;;;;;;4910123;29;20033;-73
2021/04/17 03:37:44;;;;;;;8.50;4.18;;;5.80;70.30;;;;;;4894738;29;20131;-73
2021/04/17 03:40:11;;;;;;;6.90;4.55;;;5.80;70.30;;;;;;4894097;29;20080;-73
2021/04/17 03:42:36;;;;;;;5.90;4.30;;;5.80;70.40;;;;;;4877757;29;20398;-73
2021/04/17 03:45:04;;;;;;;9.30;4.63;;;5.80;70.40;;;;;;4897107;29;20083;-73
2021/04/17 03:47:30;;;;;;;9.32;5.50;;;5.70;70.40;;;;;;4892800;29;22030;-73
2021/04/17 03:49:56;;;;;;;8.75;5.05;;;5.70;70.60;;;;;;4896355;29;20028;-73
2021/04/17 03:52:21;;;;;;;9.77;5.63;;;5.60;70.90;;;;;;4893929;29;20060;-74
2021/04/17 03:54:47;;;;;;;7.35;4.82;;;5.60;71.00;;;;;;4896743;29;20384;-73
2021/04/17 03:57:13;;;;;;;9.07;5.47;;;5.60;71.10;;;;;;4894748;29;20116;-73
2021/04/17 03:59:39;;;;;;;8.98;5.35;;;5.60;71.20;;;;;;4882982;29;20044;-73
2021/04/17 04:02:04;;;;;;;8.80;5.15;;;5.50;71.30;;;;;;4879163;29;20036;-73
2021/04/17 04:04:30;;;;;;;10.00;5.47;;;5.50;71.30;;;;;;4896298;29;20091;-73
2021/04/17 04:06:55;;;;;;;9.18;5.00;;;5.50;71.30;;;;;;4875990;29;20046;-74
2021/04/17 04:09:21;;;;;;;10.93;5.70;;;5.50;71.50;;;;;;4894834;29;20037;-74
2021/04/17 04:11:47;;;;;;;8.23;4.60;;;5.50;71.60;;;;;;4890462;29;20489;-74
2021/04/17 04:14:13;;;;;;;13.30;5.93;;;5.50;71.50;;;;;;4890922;29;20032;-73
2021/04/17 04:16:38;;;;;;;9.07;5.00;;;5.40;71.70;;;;;;4879350;29;20036;-74
2021/04/17 04:19:04;;;;;;;9.05;5.88;;;5.40;71.70;;;;;;4894460;29;20032;-75
2021/04/17 04:21:30;;;;;;;8.85;5.55;;;5.40;71.80;;;;;;4879564;29;20032;-73
2021/04/17 04:23:55;;;;;;;11.07;6.40;;;5.40;71.80;;;;;;4894424;29;20040;-74
2021/04/17 04:26:21;;;;;;;9.25;5.85;;;5.40;71.90;;;;;;4895101;29;20524;-73
2021/04/17 04:28:47;;;;;;;14.30;5.43;;;5.40;72.00;;;;;;4879855;29;20040;-73
2021/04/17 04:31:12;;;;;;;10.40;5.97;;;5.30;72.10;;;;;;4894642;29;20490;-74
2021/04/17 04:33:38;;;;;;;11.05;5.35;;;5.30;72.30;;;;;;4894702;29;20107;-73
2021/04/17 04:36:04;;;;;;;11.20;6.05;;;5.30;72.30;;;;;;4878065;29;20028;-73
2021/04/17 04:38:30;;;;;;;10.30;6.07;;;5.30;72.40;;;;;;4895441;29;20526;-73
2021/04/17 04:40:56;;;;;;;13.77;5.88;;;5.20;72.40;;;;;;4898038;29;20549;-73
2021/04/17 04:43:22;;;;;;;8.77;5.32;;;5.20;72.40;;;;;;4894696;29;20033;-74
2021/04/17 04:45:47;;;;;;;8.35;5.20;;;5.20;72.60;;;;;;4894210;29;20402;-73
2021/04/17 04:48:13;;;;;;;10.98;5.95;;;5.10;72.50;;;;;;4878038;29;20037;-73
2021/04/17 04:50:39;;;;;;;12.18;5.63;;;5.10;72.60;;;;;;4888109;29;20120;-73
2021/04/17 04:53:05;;;;;;;9.23;5.10;;;5.10;72.70;;;;;;4895745;29;20036;-73
2021/04/17 04:55:31;;;;;;;11.18;5.57;;;5.10;72.90;;;;;;4888535;29;20115;-73
2021/04/17 04:57:57;;;;;;;13.57;5.00;;;5.10;72.90;;;;;;4892821;29;20076;-73
2021/04/17 05:00:23;;;;;;;7.72;5.55;;;5.00;72.90;;;;;;4895750;29;20028;-73
2021/04/17 05:02:49;;;;;;;9.80;5.57;;;5.00;72.90;;;;;;4894774;29;20497;-73
2021/04/17 05:05:15;;;;;;;16.15;5.70;;;5.00;73.00;;;;;;4890630;29;20061;-73
2021/04/17 05:07:42;;;;;;;8.70;5.47;;;5.00;73.10;;;;;;4896625;29;20044;-73
2021/04/17 05:10:09;;;;;;;10.80;5.45;;;5.00;73.10;;;;;;4895178;29;20032;-73
2021/04/17 05:12:34;;;;;;;9.02;5.43;;;5.00;73.10;;;;;;4893136;29;20051;-73
2021/04/17 05:15:00;;;;;;;13.00;5.63;;;5.00;73.10;;;;;;4877147;29;20029;-73
2021/04/17 05:17:26;;;;;;;8.88;5.25;;;5.00;73.10;;;;;;4891499;29;20032;-73
2021/04/17 05:19:53;;;;;;;12.75;5.57;;;5.10;73.10;;;;;;4894241;29;20032;-73
2021/04/17 05:22:19;;;;;;;10.75;5.28;;;5.10;73.10;;;;;;4893849;29;20044;-73
2021/04/17 05:24:45;;;;;;;10.45;5.63;;;5.20;73.20;;;;;;4893754;29;21674;-74
2021/04/17 05:27:11;;;;;;;10.82;5.30;;;5.10;73.10;;;;;;4893915;29;20032;-73
2021/04/17 05:29:36;;;;;;;11.90;5.90;;;5.10;73.10;;;;;;4891993;29;20029;-73
2021/04/17 05:32:02;;;;;;;10.38;5.72;;;5.10;73.10;;;;;;4879731;29;20033;-73
2021/04/17 05:34:28;;;;;;;7.82;5.35;;;5.10;73.20;;;;;;4892279;29;20043;-74
2021/04/17 05:36:54;;;;;;;12.02;6.30;;;5.20;73.30;;;;;;4878188;29;20044;-73
2021/04/17 05:39:20;;;;;;;13.40;6.70;;;5.20;73.40;;;;;;4895435;29;20096;-73
2021/04/17 05:41:45;;;;;;;11.60;7.07;;;5.20;73.60;;;;;;4890400;29;20123;-73
2021/04/17 05:44:11;;;;;;;10.55;6.35;;;5.20;73.70;;;;;;4894892;29;20033;-73
2021/04/17 05:46:42;;;;;;;10.50;6.40;;;5.20;73.60;;;;;;4895285;29;20064;-73
2021/04/17 05:49:09;;;;;;;9.30;5.75;;;5.30;73.60;;;;;;4876306;29;20428;-73
2021/04/17 05:51:37;;;;;;;9.10;6.38;;;5.30;73.40;;;;;;4896453;29;20561;-74
2021/04/17 05:54:03;;;;;;;13.77;7.03;;;5.30;73.40;;;;;;4893063;29;20029;-73
2021/04/17 05:56:29;;;;;;;9.13;5.57;;;5.40;73.50;;;;;;4894998;29;20917;-73
2021/04/17 05:58:55;;;;;;;14.38;6.28;;;5.40;73.30;;;;;;4894796;29;20024;-74
2021/04/17 06:01:21;;;;;;;17.17;7.45;;;5.40;73.30;;;;;;4887719;29;20025;-73
2021/04/17 06:03:46;;;;;;;16.88;6.75;;;5.40;73.40;;;;;;4879536;29;20040;-73
2021/04/17 06:06:13;;;;;;;11.35;6.40;;;5.40;73.40;;;;;;4896526;29;20029;-73
2021/04/17 06:08:39;;;;;;;9.88;6.43;;;5.40;73.50;;;;;;4879845;29;20052;-74
2021/04/17 06:11:05;;;;;;;12.18;6.68;;;5.40;73.50;;;;;;4910072;29;20033;-73
2021/04/17 06:13:32;;;;;;;10.13;5.85;;;5.50;73.50;;;;;;4895795;29;20033;-74
2021/04/17 06:15:59;;;;;;;13.57;6.85;;;5.60;73.40;;;;;;4897509;29;20021;-73
2021/04/17 06:18:25;;;;;;;12.10;6.50;;;5.50;73.50;;;;;;4897767;29;20033;-73
2021/04/17 06:20:51;;;;;;;11.95;6.50;;;5.50;73.60;;;;;;4879520;29;20032;-73
2021/04/17 06:23:16;;;;;;;13.05;6.65;;;5.50;73.80;;;;;;4896986;29;20040;-73
2021/04/17 06:25:42;;;;;;;13.35;6.28;;;5.50;74.00;;;;;;4880837;29;20859;-74
2021/04/17 06:28:07;;;;;;;11.25;5.97;;;5.50;74.10;;;;;;4895870;29;20032;-74
2021/04/17 06:30:33;;;;;;;11.30;6.53;;;5.50;74.00;;;;;;4897498;29;20386;-73
2021/04/17 06:32:59;;;;;;;12.00;6.45;;;5.60;74.10;;;;;;4893738;29;20070;-73
2021/04/17 06:35:25;;;;;;;12.20;6.25;;;5.60;74.10;;;;;;4895430;29;20099;-73
2021/04/17 06:37:50;;;;;;;10.50;5.97;;;5.70;74.00;;;;;;4877460;29;20443;-73
2021/04/17 06:40:16;;;;;;;11.70;6.35;;;5.70;73.90;;;;;;4897062;29;20036;-73
2021/04/17 06:42:44;;;;;;;10.18;6.03;;;5.80;73.90;;;;;;4898838;29;20108;-74
2021/04/17 06:45:14;;;;;;;12.55;5.97;;;5.80;73.90;;;;;;4900333;29;20039;-73
2021/04/17 06:47:41;;;;;;;13.00;6.40;;;5.80;73.80;;;;;;4900905;29;20469;-73
2021/04/17 06:50:11;;;;;;;13.10;6.25;;;5.90;73.80;;;;;;4897958;29;20052;-74
2021/04/17 06:52:37;;;;;;;17.30;6.80;;;6.00;73.80;;;;;;4895331;29;20036;-73
2021/04/17 06:55:05;;;;;;;17.05;7.47;;;6.10;73.60;;;;;;4902916;29;20029;-73
2021/04/17 06:57:32;;;;;;;10.68;6.28;;;6.20;73.40;;;;;;4887171;29;20036;-79
2021/04/17 07:00:00;;;;;;;11.68;5.95;;;6.30;73.20;;;;;;4894912;29;20040;-76
2021/04/17 07:02:26;;;;;;;9.43;6.20;;;6.40;73.00;;;;;;4896742;29;20085;-76
2021/04/17 07:04:52;;;;;;;12.00;6.32;;;6.50;72.70;;;;;;4899691;29;20037;-76
2021/04/17 07:07:18;;;;;;;13.15;6.28;;;6.60;72.70;;;;;;4896468;29;20437;-76
2021/04/17 07:09:44;;;;;;;15.20;6.30;;;6.80;72.50;;;;;;4902399;29;20115;-76
2021/04/17 07:12:10;;;;;;;11.15;5.93;;;6.90;72.30;;;;;;4904749;29;20028;-76
2021/04/17 07:14:47;;;;;;;12.50;5.93;;;7.00;72.00;;;;;;4903337;29;20156;-76
2021/04/17 07:17:13;;;;;;;14.23;5.57;;;7.00;71.90;;;;;;4902398;29;20111;-76
2021/04/17 07:19:49;;;;;;;11.60;5.25;;;7.10;71.80;;;;;;4894374;29;20114;-76
2021/04/17 07:22:39;;;;;;;10.57;5.70;;;7.10;71.70;;;;;;4897283;29;20041;-76
2021/04/17 07:25:05;;;;;;;9.77;4.72;;;7.20;71.80;;;;;;4890488;29;20100;-75
2021/04/17 07:27:33;;;;;;;11.15;5.32;;;7.40;71.50;;;;;;4893086;29;20032;-76
2021/04/17 07:30:01;;;;;;;11.70;4.93;;;7.50;71.30;;;;;;4894075;29;20028;-76
2021/04/17 07:32:27;;;;;;;10.25;4.13;;;7.70;70.80;;;;;;4890313;29;20092;-76
2021/04/17 07:35:20;;;;;;;10.07;5.10;;;7.90;70.30;;;;;;4892928;29;20060;-76
2021/04/17 07:37:49;;;;;;;11.45;4.63;;;8.10;69.90;;;;;;4889303;29;20052;-76
2021/04/17 07:40:23;;;;;;;10.95;5.22;;;8.30;69.40;;;;;;4899833;29;20035;-76
2021/04/17 07:42:55;;;;;;;11.85;5.68;;;8.50;68.80;;;;;;4899927;29;20442;-76
2021/04/17 07:45:20;;;;;;;12.60;6.10;;;8.60;67.90;;;;;;4898562;29;20116;-76
2021/04/17 07:47:46;;;;;;;12.73;5.18;;;8.70;67.50;;;;;;4893174;29;20116;-76
2021/04/17 07:50:12;;;;;;;13.82;5.25;;;8.80;67.60;;;;;;4888204;29;20063;-76
2021/04/17 07:52:38;;;;;;;10.65;4.75;;;8.90;67.30;;;;;;4892820;29;20039;-76
2021/04/17 07:55:13;;;;;;;8.75;5.30;;;9.00;67.10;;;;;;4874979;29;20477;-77
2021/04/17 07:57:43;;;;;;;9.38;5.25;;;9.10;66.00;;;;;;4894093;29;20055;-76
2021/04/17 08:00:11;;;;;;;10.02;4.78;;;9.20;65.90;;;;;;4899468;29;20478;-74
2021/04/17 08:02:38;;;;;;;12.95;4.60;;;9.30;64.90;;;;;;4891250;29;20044;-74
2021/04/17 08:05:06;;;;;;;12.90;5.00;;;9.30;65.00;;;;;;4889888;29;20056;-82
2021/04/17 08:07:36;;;;;;;11.98;4.22;;;9.30;65.10;;;;;;4891897;29;20092;-82
2021/04/17 08:10:03;;;;;;;13.00;4.60;;;9.40;65.00;;;;;;4909810;29;20033;-83
2021/04/17 08:12:33;;;;;;;10.32;4.55;;;9.60;64.70;;;;;;4896041;29;20124;-82
2021/04/17 08:14:59;;;;;;;10.30;4.90;;;9.80;63.70;;;;;;4872546;29;20037;-83
2021/04/17 08:17:24;;;;;;;14.15;4.38;;;9.80;63.10;;;;;;4881194;29;20039;-82
2021/04/17 08:19:56;;;;;;;9.82;4.38;;;9.90;62.90;;;;;;4873990;29;20067;-82
2021/04/17 08:22:22;;;;;;;14.35;4.45;;;10.00;62.70;;;;;;4896091;29;20032;-82
2021/04/17 08:24:48;;;;;;;9.73;4.57;;;10.20;63.40;;;;;;4889034;29;20037;-82
2021/04/17 08:27:14;;;;;;;9.93;4.55;;;10.40;62.70;;;;;;4889076;29;20048;-82
2021/04/17 08:29:55;;;;;;;9.98;4.60;;;10.60;61.50;;;;;;4888328;29;20029;-82
2021/04/17 08:32:32;;;;;;;8.77;3.78;;;10.80;61.00;;;;;;4888448;29;20056;-82
2021/04/17 08:35:09;;;;;;;7.55;4.07;;;10.90;59.50;;;;;;4906841;29;20025;-82
2021/04/17 08:37:55;;;;;;;7.72;3.95;;;11.00;59.40;;;;;;4895762;29;20546;-82
2021/04/17 08:40:36;;;;;;;9.35;4.47;;;11.10;58.50;;;;;;4897947;29;20037;-82
2021/04/17 08:43:25;;;;;;;14.65;4.57;;;11.20;58.40;;;;;;4893586;29;20081;-83
2021/04/17 08:46:07;;;;;;;8.57;3.67;;;11.30;57.80;;;;;;4889304;29;20096;-83
2021/04/17 08:48:54;;;;;;;9.20;3.67;;;11.40;57.20;;;;;;4891336;29;20127;-82
2021/04/17 08:51:22;;;;;;;11.55;3.53;;;11.40;57.40;;;;;;4897397;29;20035;-83
2021/04/17 08:53:49;;;;;;;9.40;3.20;;;11.50;56.40;;;;;;4888952;29;20111;-83
2021/04/17 08:56:15;;;;;;;10.07;3.40;;;11.70;56.20;;;;;;4897557;29;20048;-82
2021/04/17 08:58:41;;;;;;;7.15;3.28;;;11.90;55.00;;;;;;4892474;29;20032;-76
2021/04/17 09:01:10;;;;;;;9.38;3.45;;;11.90;55.00;;;;;;4906849;29;20434;-78
2021/04/17 09:03:42;;;;;;;12.00;3.63;;;11.90;53.40;;;;;;4892089;29;20041;-77
2021/04/17 09:06:24;;;;;;;7.72;3.50;;;11.80;53.30;;;;;;4891639;29;20437;-78
2021/04/17 09:09:15;;;;;;;11.10;3.70;;;11.80;54.30;;;;;;4889953;29;20064;-78
2021/04/17 09:11:42;;;;;;;13.13;3.53;;;11.90;54.60;;;;;;4907900;29;20027;-78
2021/04/17 09:14:29;;;;;;;6.80;2.50;;;12.10;55.90;;;;;;4884904;29;20020;-79
2021/04/17 09:16:57;;;;;;;9.07;2.92;;;12.30;53.80;;;;;;4915853;29;20070;-78
2021/04/17 09:19:52;;;;;;;7.88;3.00;;;12.50;53.40;;;;;;4908974;29;20111;-80
2021/04/17 09:22:34;;;;;;;5.63;2.75;;;12.70;51.70;;;;;;4879094;29;20520;-79
2021/04/17 09:25:07;;;;;;;7.30;2.50;;;12.90;50.70;;;;;;4903146;29;20039;-78
2021/04/17 09:27:35;;;;;;;6.88;2.67;;;12.80;49.40;;;;;;4897864;29;20438;-78
2021/04/17 09:30:06;;;;;;;5.60;2.30;;;12.80;49.40;;;;;;4903770;29;20024;-79
2021/04/17 09:32:37;;;;;;;9.48;2.60;;;12.90;48.50;;;;;;4898075;29;20056;-79
2021/04/17 09:35:17;;;;;;;6.18;2.13;;;13.00;48.80;;;;;;4898112;29;20025;-79
2021/04/17 09:37:49;;;;;;;5.63;2.75;;;13.20;48.80;;;;;;4899439;29;20063;-79
2021/04/17 09:40:15;;;;;;;8.35;2.70;;;13.30;46.50;;;;;;4900597;29;20143;-79
2021/04/17 09:42:41;;;;;;;6.50;2.10;;;13.40;46.40;;;;;;4902056;29;20434;-79
2021/04/17 09:45:10;;;;;;;3.88;2.20;;;13.60;46.90;;;;;;4920579;29;20032;-79
2021/04/17 09:47:36;;;;;;;;;;;13.70;46.40;;;;;;4904351;29;20036;-79
2021/04/17 09:50:20;;;;;;;8.48;2.40;;;13.90;45.90;;;;;;4900496;29;20429;-79
2021/04/17 09:52:45;;;;;;;5.97;2.33;;;14.10;45.40;;;;;;4900162;29;20075;-79
2021/04/17 09:55:11;;;;;;;5.05;2.47;;;14.20;44.50;;;;;;4900381;29;20426;-79
2021/04/17 09:57:45;;;;;;;4.10;1.98;;;14.30;43.30;;;;;;4905730;29;20516;-79
2021/04/17 10:00:11;;;;;;;4.93;2.00;;;14.20;42.40;;;;;;4902717;29;20029;-79
2021/04/17 10:02:41;;;;;;;3.13;1.92;;;14.00;43.40;;;;;;4900928;29;20033;-79
2021/04/17 10:05:07;;;;;;;3.10;2.05;;;13.90;43.80;;;;;;4900926;29;20602;-79
2021/04/17 10:07:50;;;;;;;6.28;2.38;;;13.90;42.80;;;;;;4898801;29;20067;-79
2021/04/17 10:10:16;;;;;;;6.57;2.40;;;13.90;42.90;;;;;;4898138;29;20048;-79
2021/04/17 10:12:53;;;;;;;3.58;1.90;;;14.10;44.40;;;;;;4899660;29;20080;-79
2021/04/17 10:15:28;;;;;;;7.63;2.45;;;14.10;43.00;;;;;;4900973;29;20485;-79
2021/04/17 10:17:56;;;;;;;7.13;2.47;;;14.20;42.60;;;;;;4901107;29;20084;-78
2021/04/17 10:20:23;;;;;;;4.88;2.20;;;14.20;41.70;;;;;;4908452;29;20299;-78
2021/04/17 10:23:02;;;;;;;6.88;2.30;;;14.10;42.10;;;;;;4899832;29;20040;-79
2021/04/17 10:26:01;;;;;;;3.17;2.05;;;14.00;42.40;;;;;;4900568;29;20040;-79
2021/04/17 10:28:27;;;;;;;5.18;2.05;;;14.00;42.90;;;;;;4907692;29;20088;-79
2021/04/17 10:30:55;;;;;;;7.10;2.38;;;14.00;42.60;;;;;;4894613;29;20422;-79
2021/04/17 10:33:23;;;;;;;6.50;2.20;;;14.30;42.60;;;;;;4905857;29;20343;-79
2021/04/17 10:35:50;;;;;;;6.28;2.50;;;14.50;42.40;;;;;;4910325;29;20435;-79
2021/04/17 10:38:31;;;;;;;3.63;2.10;;;14.60;42.20;;;;;;4900270;29;20116;-80
2021/04/17 10:40:59;;;;;;;5.78;2.28;;;14.60;42.30;;;;;;4899052;29;20450;-80
2021/04/17 10:43:26;;;;;;;8.60;2.30;;;14.70;42.30;;;;;;4908699;29;20036;-80
2021/04/17 10:46:00;;;;;;;8.77;2.40;;;14.90;42.00;;;;;;4919326;29;20028;-80
2021/04/17 10:48:27;;;;;;;5.20;2.53;;;14.90;40.90;;;;;;4900225;29;20035;-80
2021/04/17 10:51:09;;;;;;;3.95;2.15;;;14.80;41.20;;;;;;4900025;29;20529;-81
2021/04/17 10:53:36;;;;;;;8.88;2.28;;;14.60;41.90;;;;;;4900096;29;20028;-80
2021/04/17 10:56:12;;;;;;;3.65;1.73;;;14.60;40.80;;;;;;4900200;29;20033;-77
2021/04/17 10:58:38;;;;;;;6.25;2.20;;;14.60;42.00;;;;;;4900232;29;20032;-77
2021/04/17 11:01:06;;;;;;;4.88;2.15;;;14.60;42.00;;;;;;4899155;29;20553;-77
2021/04/17 11:03:42;;;;;;;5.18;2.20;;;14.80;41.30;;;;;;4900781;29;20039;-77
2021/04/17 11:06:29;;;;;;;4.47;2.38;;;14.90;40.20;;;;;;4880438;29;20061;-76
2021/04/17 11:09:18;;;;;;;3.75;2.10;;;15.00;40.40;;;;;;4890588;29;20045;-77
2021/04/17 11:12:01;;;;;;;4.72;2.17;;;15.10;40.00;;;;;;4900055;29;20032;-77
2021/04/17 11:14:28;;;;;;;5.95;2.35;;;15.30;40.10;;;;;;4911268;29;20028;-76
2021/04/17 11:16:55;;;;;;;5.90;2.40;;;15.40;39.70;;;;;;4890106;29;20536;-77
2021/04/17 11:19:32;;;;;;;6.95;2.58;;;15.50;39.40;;;;;;4918476;29;20039;-77
2021/04/17 11:22:25;;;;;;;6.07;2.20;;;15.50;38.80;;;;;;4916403;29;20024;-78
2021/04/17 11:24:57;;;;;;;4.65;2.05;;;15.70;39.30;;;;;;4885430;29;20048;-76
2021/04/17 11:27:23;;;;;;;5.68;1.98;;;15.90;38.90;;;;;;4912179;29;20041;-77
2021/04/17 11:29:48;;;;;;;4.28;2.30;;;16.10;38.50;;;;;;4902500;29;20037;-76
2021/04/17 11:32:14;;;;;;;7.18;2.38;;;16.20;38.80;;;;;;4884240;29;20482;-77
2021/04/17 11:34:47;;;;;;;9.23;2.75;;;16.10;38.20;;;;;;4898532;29;20032;-76
2021/04/17 11:37:14;;;;;;;6.18;2.05;;;15.80;37.80;;;;;;4898311;29;20088;-76
2021/04/17 11:39:40;;;;;;;4.70;1.88;;;15.80;37.70;;;;;;4882171;29;20044;-77
2021/04/17 11:42:06;;;;;;;4.97;2.03;;;15.70;36.70;;;;;;4882489;29;20371;-76
2021/04/17 11:44:32;;;;;;;7.95;2.00;;;15.70;37.20;;;;;;4900096;29;20167;-76
2021/04/17 11:46:59;;;;;;;5.00;2.03;;;15.70;36.90;;;;;;4896881;29;20067;-76
2021/04/17 11:49:25;;;;;;;6.68;2.47;;;15.60;37.10;;;;;;4898161;29;20048;-76
2021/04/17 11:51:54;;;;;;;3.28;2.30;;;15.50;37.50;;;;;;4882323;29;20033;-76
2021/04/17 11:54:19;;;;;;;6.80;2.03;;;15.60;37.90;;;;;;4905416;29;20040;-75
2021/04/17 11:56:45;;;;;;;5.82;2.20;;;15.70;37.90;;;;;;4882330;29;20382;-76
2021/04/17 11:59:10;;;;;;;4.82;2.13;;;15.80;37.90;;;;;;4889736;29;20035;-76
2021/04/17 12:01:36;;;;;;;4.78;2.13;;;16.00;38.00;;;;;;4885052;29;20490;-76
2021/04/17 12:04:02;;;;;;;2.92;1.70;;;16.10;37.60;;;;;;4903078;29;20033;-76
2021/04/17 12:06:29;;;;;;;4.70;2.15;;;16.30;37.20;;;;;;4912626;29;20024;-75
2021/04/17 12:08:55;;;;;;;6.55;2.35;;;16.40;36.40;;;;;;4898627;29;20490;-75
2021/04/17 12:11:21;;;;;;;6.85;2.25;;;16.50;37.00;;;;;;4898576;29;20028;-75
2021/04/17 12:13:47;;;;;;;6.40;2.05;;;16.50;36.30;;;;;;4882931;29;20127;-76
2021/04/17 12:16:12;;;;;;;5.55;2.38;;;16.50;37.40;;;;;;4902626;29;20035;-75
2021/04/17 12:18:38;;;;;;;4.32;1.95;;;16.50;36.80;;;;;;4882345;29;20056;-76
2021/04/17 12:21:04;;;;;;;6.07;2.15;;;16.30;37.00;;;;;;4897021;29;20072;-76
2021/04/17 12:23:30;;;;;;;5.90;2.45;;;16.00;37.80;;;;;;4894450;29;20423;-75
2021/04/17 12:25:56;;;;;;;4.82;2.10;;;16.00;37.00;;;;;;4896351;29;20486;-76
2021/04/17 12:28:22;;;;;;;8.88;2.60;;;16.10;37.20;;;;;;4898037;29;20037;-74
2021/04/17 12:30:48;;;;;;;4.63;2.15;;;16.30;37.60;;;;;;4901080;29;20146;-76
2021/04/17 12:33:14;;;;;;;4.72;2.42;;;16.60;37.50;;;;;;4909295;29;20020;-77
2021/04/17 12:35:41;;;;;;;6.47;2.03;;;16.60;36.30;;;;;;4897363;29;20029;-77
2021/04/17 12:38:07;;;;;;;3.80;2.03;;;16.20;36.30;;;;;;4881147;29;20040;-76
2021/04/17 12:40:35;;;;;;;7.30;2.25;;;15.70;37.50;;;;;;4896808;29;20033;-77
2021/04/17 12:43:00;;;;;;;4.07;2.00;;;15.60;38.80;;;;;;4897141;29;20036;-79
2021/04/17 12:45:26;;;;;;;6.28;2.17;;;15.70;38.30;;;;;;4879017;29;20092;-78
2021/04/17 12:47:52;;;;;;;7.22;2.58;;;15.90;38.20;;;;;;4881334;29;20033;-80
2021/04/17 12:50:17;;;;;;;7.90;2.50;;;16.20;38.90;;;;;;4902677;29;20493;-75
2021/04/17 12:52:43;;;;;;;6.88;2.70;;;16.50;38.40;;;;;;4881324;29;20040;-77
2021/04/17 12:55:09;;;;;;;5.53;2.50;;;16.30;38.70;;;;;;4881695;29;20115;-77
2021/04/17 12:57:35;;;;;;;5.78;2.60;;;16.10;39.20;;;;;;4886067;29;20044;-76
2021/04/17 13:00:01;;;;;;;5.28;1.67;;;16.00;39.40;;;;;;4898070;29;20032;-77